createdAt,value
2018-11-11T00:00:16.866Z,14.43
2018-11-11T00:00:43.003Z,14.48
2018-11-11T00:01:09.189Z,14.45
2018-11-11T00:01:35.682Z,14.44
2018-11-11T00:02:01.779Z,14.5
2018-11-11T00:02:27.908Z,14.45
2018-11-11T00:02:54.092Z,14.41
2018-11-11T00:03:20.223Z,14.45
2018-11-11T00:03:46.380Z,14.4
2018-11-11T00:04:12.514Z,14.41
2018-11-11T00:04:38.663Z,14.41
2018-11-11T00:05:04.815Z,14.41
2018-11-11T00:05:31.009Z,14.35
2018-11-11T00:05:57.153Z,14.45
2018-11-11T00:06:23.281Z,14.43
2018-11-11T00:06:49.445Z,14.54
2018-11-11T00:07:15.554Z,14.5
2018-11-11T00:07:41.710Z,14.48
2018-11-11T00:08:07.855Z,14.43
2018-11-11T00:08:34.010Z,14.45
2018-11-11T00:09:00.166Z,14.44
2018-11-11T00:09:26.311Z,14.4
2018-11-11T00:09:52.472Z,14.44
2018-11-11T00:10:18.674Z,14.4
2018-11-11T00:10:44.808Z,14.5
2018-11-11T00:11:10.962Z,14.51
2018-11-11T00:11:37.115Z,14.45
2018-11-11T00:12:03.265Z,14.44
2018-11-11T00:12:29.474Z,14.35
2018-11-11T00:12:55.572Z,14.45
2018-11-11T00:13:21.725Z,14.45
2018-11-11T00:13:47.863Z,14.47
2018-11-11T00:14:14.003Z,14.53
2018-11-11T00:14:40.131Z,14.54
2018-11-11T00:15:06.273Z,14.55
2018-11-11T00:15:32.431Z,14.58
2018-11-11T00:15:58.578Z,14.53
2018-11-11T00:16:24.708Z,14.5
2018-11-11T00:16:50.867Z,14.55
2018-11-11T00:17:16.999Z,14.51
2018-11-11T00:17:43.135Z,14.51
2018-11-11T00:18:09.270Z,14.5
2018-11-11T00:18:35.461Z,14.48
2018-11-11T00:19:01.577Z,14.53
2018-11-11T00:19:27.714Z,14.53
2018-11-11T00:19:53.868Z,14.55
2018-11-11T00:20:20.024Z,14.48
2018-11-11T00:20:46.175Z,14.55
2018-11-11T00:21:12.305Z,14.5
2018-11-11T00:21:38.458Z,14.51
2018-11-11T00:22:04.588Z,14.48
2018-11-11T00:22:30.719Z,14.44
2018-11-11T00:22:56.885Z,14.51
2018-11-11T00:23:23.037Z,14.45
2018-11-11T00:23:49.168Z,14.48
2018-11-11T00:24:15.296Z,14.54
2018-11-11T00:24:41.427Z,14.41
2018-11-11T00:25:07.587Z,14.45
2018-11-11T00:25:33.715Z,14.58
2018-11-11T00:25:59.849Z,14.51
2018-11-11T00:26:25.986Z,14.55
2018-11-11T00:26:52.118Z,14.41
2018-11-11T00:27:18.292Z,14.41
2018-11-11T00:27:44.441Z,14.33
2018-11-11T00:28:10.588Z,14.33
2018-11-11T00:28:36.798Z,14.36
2018-11-11T00:29:02.945Z,14.45
2018-11-11T00:29:29.095Z,14.32
2018-11-11T00:29:55.218Z,14.48
2018-11-11T00:30:21.352Z,14.44
2018-11-11T00:30:47.493Z,14.41
2018-11-11T00:31:13.624Z,14.36
2018-11-11T00:31:39.753Z,14.35
2018-11-11T00:32:05.908Z,14.3
2018-11-11T00:32:32.048Z,14.29
2018-11-11T00:32:58.210Z,14.35
2018-11-11T00:33:24.343Z,14.37
2018-11-11T00:33:50.477Z,14.23
2018-11-11T00:34:16.629Z,14.29
2018-11-11T00:34:42.785Z,14.23
2018-11-11T00:35:08.920Z,14.17
2018-11-11T00:35:35.049Z,14.18
2018-11-11T00:36:01.190Z,14.2
2018-11-11T00:36:27.319Z,14.26
2018-11-11T00:36:53.443Z,14.14
2018-11-11T00:37:19.586Z,14.26
2018-11-11T00:37:45.749Z,14.15
2018-11-11T00:38:11.883Z,14.25
2018-11-11T00:38:38.027Z,14.2
2018-11-11T00:39:04.156Z,14.23
2018-11-11T00:39:30.313Z,14.25
2018-11-11T00:39:56.414Z,14.18
2018-11-11T00:40:22.570Z,14.23
2018-11-11T00:40:48.709Z,14.26
2018-11-11T00:41:14.844Z,14.32
2018-11-11T00:41:40.979Z,14.3
2018-11-11T00:42:07.110Z,14.36
2018-11-11T00:42:33.242Z,14.35
2018-11-11T00:42:59.373Z,14.44
2018-11-11T00:43:25.527Z,14.45
2018-11-11T00:43:51.657Z,14.3
2018-11-11T00:44:17.787Z,14.26
2018-11-11T00:44:43.951Z,14.29
2018-11-11T00:45:10.090Z,14.25
2018-11-11T00:45:36.218Z,14.25
2018-11-11T00:46:02.354Z,14.3
2018-11-11T00:46:28.483Z,14.28
2018-11-11T00:46:54.619Z,14.23
2018-11-11T00:47:20.776Z,14.3
2018-11-11T00:47:46.933Z,14.25
2018-11-11T00:48:13.067Z,14.29
2018-11-11T00:48:39.203Z,14.25
2018-11-11T00:49:05.358Z,14.25
2018-11-11T00:49:31.482Z,14.23
2018-11-11T00:49:57.623Z,14.28
2018-11-11T00:50:23.796Z,14.26
2018-11-11T00:50:49.933Z,14.36
2018-11-11T00:51:16.067Z,14.28
2018-11-11T00:51:42.223Z,14.35
2018-11-11T00:52:08.358Z,14.28
2018-11-11T00:52:34.523Z,14.36
2018-11-11T00:53:00.691Z,14.37
2018-11-11T00:53:26.852Z,14.32
2018-11-11T00:53:53.006Z,14.32
2018-11-11T00:54:19.161Z,14.33
2018-11-11T00:54:45.306Z,14.43
2018-11-11T00:55:11.442Z,14.35
2018-11-11T00:55:37.600Z,14.4
2018-11-11T00:56:03.732Z,14.33
2018-11-11T00:56:29.857Z,14.32
2018-11-11T00:56:55.993Z,14.32
2018-11-11T00:57:22.128Z,14.3
2018-11-11T00:57:48.253Z,14.37
2018-11-11T00:58:14.390Z,14.37
2018-11-11T00:58:40.557Z,14.36
2018-11-11T00:59:06.684Z,14.4
2018-11-11T00:59:32.818Z,14.35
2018-11-11T00:59:58.948Z,14.41
2018-11-11T01:00:25.099Z,14.5
2018-11-11T01:00:51.224Z,14.44
2018-11-11T01:01:17.363Z,14.47
2018-11-11T01:01:43.492Z,14.43
2018-11-11T01:02:09.685Z,14.33
2018-11-11T01:02:35.815Z,14.41
2018-11-11T01:03:01.942Z,14.51
2018-11-11T01:03:28.084Z,14.44
2018-11-11T01:03:54.211Z,14.43
2018-11-11T01:04:20.376Z,14.41
2018-11-11T01:04:46.515Z,14.45
2018-11-11T01:05:12.645Z,14.36
2018-11-11T01:05:38.771Z,14.32
2018-11-11T01:06:04.909Z,14.29
2018-11-11T01:06:31.037Z,14.29
2018-11-11T01:06:57.243Z,14.33
2018-11-11T01:07:23.374Z,14.43
2018-11-11T01:07:49.535Z,14.43
2018-11-11T01:08:15.693Z,14.35
2018-11-11T01:08:41.852Z,14.48
2018-11-11T01:09:07.984Z,14.41
2018-11-11T01:09:34.110Z,14.48
2018-11-11T01:10:00.245Z,14.48
2018-11-11T01:10:26.379Z,14.33
2018-11-11T01:10:52.537Z,14.22
2018-11-11T01:11:18.671Z,14.26
2018-11-11T01:11:44.813Z,14.22
2018-11-11T01:12:11.029Z,14.25
2018-11-11T01:12:37.121Z,14.23
2018-11-11T01:13:03.258Z,14.33
2018-11-11T01:13:29.388Z,14.3
2018-11-11T01:13:55.518Z,14.28
2018-11-11T01:14:21.669Z,14.29
2018-11-11T01:14:47.799Z,14.37
2018-11-11T01:15:13.937Z,14.32
2018-11-11T01:15:40.060Z,14.26
2018-11-11T01:16:06.337Z,14.37
2018-11-11T01:16:32.469Z,14.29
2018-11-11T01:16:58.593Z,14.33
2018-11-11T01:17:24.738Z,14.26
2018-11-11T01:17:50.870Z,14.29
2018-11-11T01:18:17.001Z,14.29
2018-11-11T01:18:43.147Z,14.3
2018-11-11T01:19:09.283Z,14.23
2018-11-11T01:19:35.412Z,14.07
2018-11-11T01:20:01.557Z,14.07
2018-11-11T01:20:27.707Z,14.25
2018-11-11T01:20:53.842Z,14.15
2018-11-11T01:21:19.982Z,14.22
2018-11-11T01:21:46.115Z,14.15
2018-11-11T01:22:12.245Z,14.15
2018-11-11T01:22:38.379Z,14.14
2018-11-11T01:23:04.537Z,14.22
2018-11-11T01:23:30.670Z,14.12
2018-11-11T01:23:56.802Z,14.14
2018-11-11T01:24:22.951Z,14.08
2018-11-11T01:24:49.105Z,14.08
2018-11-11T01:25:15.237Z,14.08
2018-11-11T01:25:41.369Z,14
2018-11-11T01:26:07.504Z,14.15
2018-11-11T01:26:33.636Z,14
2018-11-11T01:26:59.765Z,13.99
2018-11-11T01:27:25.919Z,14.05
2018-11-11T01:27:52.049Z,13.97
2018-11-11T01:28:18.177Z,13.99
2018-11-11T01:28:44.315Z,14.04
2018-11-11T01:29:10.443Z,14
2018-11-11T01:29:36.577Z,14.04
2018-11-11T01:30:02.719Z,14.05
2018-11-11T01:30:28.871Z,14.04
2018-11-11T01:30:54.998Z,13.97
2018-11-11T01:31:21.163Z,13.97
2018-11-11T01:31:47.295Z,13.9
2018-11-11T01:32:13.452Z,13.86
2018-11-11T01:32:39.581Z,13.87
2018-11-11T01:33:05.715Z,13.9
2018-11-11T01:33:31.847Z,13.99
2018-11-11T01:33:58.003Z,13.97
2018-11-11T01:34:24.141Z,14.04
2018-11-11T01:34:50.276Z,13.95
2018-11-11T01:35:16.452Z,13.99
2018-11-11T01:35:42.580Z,13.89
2018-11-11T01:36:08.714Z,13.83
2018-11-11T01:36:34.848Z,13.85
2018-11-11T01:37:00.999Z,13.96
2018-11-11T01:37:27.137Z,13.78
2018-11-11T01:37:53.287Z,13.78
2018-11-11T01:38:19.444Z,13.81
2018-11-11T01:38:45.601Z,13.77
2018-11-11T01:39:11.736Z,13.77
2018-11-11T01:39:37.868Z,13.79
2018-11-11T01:40:04.023Z,13.77
2018-11-11T01:40:30.157Z,13.83
2018-11-11T01:40:56.307Z,13.83
2018-11-11T01:41:22.438Z,13.79
2018-11-11T01:41:48.569Z,13.71
2018-11-11T01:42:14.752Z,13.79
2018-11-11T01:42:40.886Z,13.77
2018-11-11T01:43:07.037Z,13.78
2018-11-11T01:43:33.199Z,13.65
2018-11-11T01:43:59.329Z,13.72
2018-11-11T01:44:25.461Z,13.7
2018-11-11T01:44:51.588Z,13.68
2018-11-11T01:45:17.720Z,13.74
2018-11-11T01:45:43.858Z,13.72
2018-11-11T01:46:09.992Z,13.78
2018-11-11T01:46:36.122Z,13.77
2018-11-11T01:47:02.261Z,13.77
2018-11-11T01:47:28.410Z,13.72
2018-11-11T01:47:54.572Z,13.81
2018-11-11T01:48:20.699Z,13.83
2018-11-11T01:48:46.838Z,13.77
2018-11-11T01:49:12.990Z,13.75
2018-11-11T01:49:39.120Z,13.81
2018-11-11T01:50:05.256Z,13.72
2018-11-11T01:50:31.417Z,13.79
2018-11-11T01:50:57.547Z,13.74
2018-11-11T01:51:23.734Z,13.77
2018-11-11T01:51:49.896Z,13.77
2018-11-11T01:52:16.052Z,13.72
2018-11-11T01:52:42.182Z,13.71
2018-11-11T01:53:08.339Z,13.78
2018-11-11T01:53:34.474Z,13.79
2018-11-11T01:54:00.602Z,13.74
2018-11-11T01:54:26.741Z,13.68
2018-11-11T01:54:52.876Z,13.77
2018-11-11T01:55:19.019Z,13.75
2018-11-11T01:55:45.141Z,13.71
2018-11-11T01:56:11.279Z,13.74
2018-11-11T01:56:37.416Z,13.78
2018-11-11T01:57:03.554Z,13.87
2018-11-11T01:57:29.702Z,13.79
2018-11-11T01:57:55.842Z,13.74
2018-11-11T01:58:21.971Z,13.85
2018-11-11T01:58:48.104Z,13.85
2018-11-11T01:59:14.238Z,13.9
2018-11-11T01:59:40.421Z,13.85
2018-11-11T02:00:06.573Z,13.92
2018-11-11T02:00:32.696Z,13.86
2018-11-11T02:00:58.825Z,13.81
2018-11-11T02:01:24.959Z,13.87
2018-11-11T02:01:51.097Z,13.86
2018-11-11T02:02:17.223Z,13.86
2018-11-11T02:02:43.363Z,13.79
2018-11-11T02:03:09.500Z,13.72
2018-11-11T02:03:35.639Z,13.78
2018-11-11T02:04:01.761Z,13.7
2018-11-11T02:04:27.900Z,13.74
2018-11-11T02:04:54.077Z,13.87
2018-11-11T02:05:20.241Z,13.83
2018-11-11T02:05:46.376Z,13.83
2018-11-11T02:06:12.505Z,13.89
2018-11-11T02:06:38.631Z,13.85
2018-11-11T02:07:04.766Z,13.89
2018-11-11T02:07:30.898Z,13.78
2018-11-11T02:07:57.036Z,13.77
2018-11-11T02:08:23.171Z,13.77
2018-11-11T02:08:49.304Z,13.83
2018-11-11T02:09:15.435Z,13.83
2018-11-11T02:09:41.660Z,13.68
2018-11-11T02:10:07.741Z,13.67
2018-11-11T02:10:33.891Z,13.7
2018-11-11T02:11:00.023Z,13.72
2018-11-11T02:11:26.157Z,13.75
2018-11-11T02:11:52.286Z,13.79
2018-11-11T02:12:18.417Z,13.78
2018-11-11T02:12:44.578Z,13.75
2018-11-11T02:13:10.711Z,13.7
2018-11-11T02:13:36.869Z,13.79
2018-11-11T02:14:02.996Z,13.78
2018-11-11T02:14:29.127Z,13.78
2018-11-11T02:14:55.267Z,13.7
2018-11-11T02:15:21.402Z,13.75
2018-11-11T02:15:47.535Z,13.68
2018-11-11T02:16:13.665Z,13.71
2018-11-11T02:16:39.798Z,13.77
2018-11-11T02:17:05.939Z,13.71
2018-11-11T02:17:32.068Z,13.77
2018-11-11T02:17:58.200Z,13.81
2018-11-11T02:18:24.334Z,13.77
2018-11-11T02:18:50.514Z,13.78
2018-11-11T02:19:16.599Z,13.75
2018-11-11T02:19:42.754Z,13.72
2018-11-11T02:20:08.902Z,13.72
2018-11-11T02:20:35.039Z,13.71
2018-11-11T02:21:01.278Z,13.68
2018-11-11T02:21:27.419Z,13.7
2018-11-11T02:21:53.523Z,13.74
2018-11-11T02:22:19.650Z,13.71
2018-11-11T02:22:45.786Z,13.75
2018-11-11T02:23:11.937Z,13.7
2018-11-11T02:23:38.075Z,13.77
2018-11-11T02:24:04.209Z,13.71
2018-11-11T02:24:30.341Z,13.75
2018-11-11T02:24:56.471Z,13.65
2018-11-11T02:25:22.612Z,13.7
2018-11-11T02:25:48.767Z,13.62
2018-11-11T02:26:14.894Z,13.62
2018-11-11T02:26:41.030Z,13.7
2018-11-11T02:27:07.161Z,13.75
2018-11-11T02:27:33.299Z,13.77
2018-11-11T02:27:59.448Z,13.77
2018-11-11T02:28:25.599Z,13.62
2018-11-11T02:28:51.758Z,13.7
2018-11-11T02:29:17.883Z,13.72
2018-11-11T02:29:44.031Z,13.72
2018-11-11T02:30:10.159Z,13.83
2018-11-11T02:30:36.344Z,13.74
2018-11-11T02:31:02.493Z,13.77
2018-11-11T02:31:28.674Z,13.77
2018-11-11T02:31:54.806Z,13.74
2018-11-11T02:32:20.940Z,13.71
2018-11-11T02:32:47.089Z,13.7
2018-11-11T02:33:13.226Z,13.72
2018-11-11T02:33:39.403Z,13.67
2018-11-11T02:34:05.540Z,13.68
2018-11-11T02:34:31.679Z,13.74
2018-11-11T02:34:57.861Z,13.72
2018-11-11T02:35:24.046Z,13.77
2018-11-11T02:35:50.202Z,13.65
2018-11-11T02:36:16.338Z,13.65
2018-11-11T02:36:42.494Z,13.77
2018-11-11T02:37:08.658Z,13.7
2018-11-11T02:37:34.845Z,13.63
2018-11-11T02:38:00.980Z,13.68
2018-11-11T02:38:27.133Z,13.6
2018-11-11T02:38:53.320Z,13.67
2018-11-11T02:39:19.457Z,13.71
2018-11-11T02:39:45.588Z,13.62
2018-11-11T02:40:11.720Z,13.6
2018-11-11T02:40:37.847Z,13.7
2018-11-11T02:41:03.979Z,13.67
2018-11-11T02:41:30.118Z,13.63
2018-11-11T02:41:56.271Z,13.67
2018-11-11T02:42:22.430Z,13.63
2018-11-11T02:42:48.602Z,13.62
2018-11-11T02:43:14.738Z,13.68
2018-11-11T02:43:40.915Z,13.59
2018-11-11T02:44:07.043Z,13.7
2018-11-11T02:44:33.181Z,13.63
2018-11-11T02:44:59.384Z,13.68
2018-11-11T02:45:25.521Z,13.6
2018-11-11T02:45:51.678Z,13.62
2018-11-11T02:46:17.812Z,13.53
2018-11-11T02:46:43.968Z,13.54
2018-11-11T02:47:10.099Z,13.59
2018-11-11T02:47:36.262Z,13.5
2018-11-11T02:48:02.435Z,13.6
2018-11-11T02:48:28.570Z,13.6
2018-11-11T02:48:54.729Z,13.56
2018-11-11T02:49:20.882Z,13.56
2018-11-11T02:49:47.009Z,13.62
2018-11-11T02:50:13.138Z,13.56
2018-11-11T02:50:39.271Z,13.62
2018-11-11T02:51:05.428Z,13.57
2018-11-11T02:51:31.593Z,13.59
2018-11-11T02:51:57.727Z,13.56
2018-11-11T02:52:23.882Z,13.6
2018-11-11T02:52:50.016Z,13.5
2018-11-11T02:53:16.167Z,13.57
2018-11-11T02:53:42.324Z,13.47
2018-11-11T02:54:08.499Z,13.5
2018-11-11T02:54:34.654Z,13.49
2018-11-11T02:55:00.813Z,13.52
2018-11-11T02:55:26.950Z,13.54
2018-11-11T02:55:53.133Z,13.56
2018-11-11T02:56:19.311Z,13.5
2018-11-11T02:56:45.527Z,13.53
2018-11-11T02:57:11.685Z,13.44
2018-11-11T02:57:37.863Z,13.5
2018-11-11T02:58:03.999Z,13.39
2018-11-11T02:58:30.135Z,13.44
2018-11-11T02:58:56.290Z,13.52
2018-11-11T02:59:22.427Z,13.54
2018-11-11T02:59:48.571Z,13.54
2018-11-11T03:00:14.691Z,13.53
2018-11-11T03:00:40.825Z,13.57
2018-11-11T03:01:06.986Z,13.52
2018-11-11T03:01:33.120Z,13.5
2018-11-11T03:01:59.255Z,13.53
2018-11-11T03:02:25.413Z,13.49
2018-11-11T03:02:51.567Z,13.38
2018-11-11T03:03:17.728Z,13.52
2018-11-11T03:03:43.879Z,13.5
2018-11-11T03:04:10.082Z,13.47
2018-11-11T03:04:36.383Z,13.56
2018-11-11T03:05:02.392Z,13.5
2018-11-11T03:05:28.547Z,13.52
2018-11-11T03:05:54.701Z,13.52
2018-11-11T03:06:20.832Z,13.5
2018-11-11T03:06:46.987Z,13.53
2018-11-11T03:07:13.150Z,13.38
2018-11-11T03:07:39.286Z,13.53
2018-11-11T03:08:05.422Z,13.53
2018-11-11T03:08:31.576Z,13.57
2018-11-11T03:08:57.730Z,13.5
2018-11-11T03:09:23.929Z,13.53
2018-11-11T03:09:50.088Z,13.5
2018-11-11T03:10:16.222Z,13.56
2018-11-11T03:10:42.374Z,13.47
2018-11-11T03:11:08.519Z,13.39
2018-11-11T03:11:34.656Z,13.39
2018-11-11T03:12:00.787Z,13.53
2018-11-11T03:12:26.941Z,13.53
2018-11-11T03:12:53.074Z,13.54
2018-11-11T03:13:19.231Z,13.47
2018-11-11T03:13:45.396Z,13.5
2018-11-11T03:14:11.564Z,13.5
2018-11-11T03:14:37.721Z,13.52
2018-11-11T03:15:03.933Z,13.53
2018-11-11T03:15:30.082Z,13.6
2018-11-11T03:15:56.262Z,13.49
2018-11-11T03:16:22.393Z,13.54
2018-11-11T03:16:48.555Z,13.62
2018-11-11T03:17:14.690Z,13.46
2018-11-11T03:17:40.849Z,13.63
2018-11-11T03:18:07.047Z,13.54
2018-11-11T03:18:33.179Z,13.54
2018-11-11T03:18:59.315Z,13.49
2018-11-11T03:19:25.469Z,13.37
2018-11-11T03:19:51.608Z,13.44
2018-11-11T03:20:17.790Z,13.53
2018-11-11T03:20:43.919Z,13.54
2018-11-11T03:21:10.043Z,13.52
2018-11-11T03:21:36.175Z,13.44
2018-11-11T03:22:02.309Z,13.44
2018-11-11T03:22:28.473Z,13.41
2018-11-11T03:22:54.617Z,13.53
2018-11-11T03:23:20.751Z,13.41
2018-11-11T03:23:46.939Z,13.49
2018-11-11T03:24:13.075Z,13.49
2018-11-11T03:24:39.238Z,13.47
2018-11-11T03:25:05.386Z,13.57
2018-11-11T03:25:31.540Z,13.57
2018-11-11T03:25:57.671Z,13.54
2018-11-11T03:26:23.834Z,13.42
2018-11-11T03:26:49.993Z,13.54
2018-11-11T03:27:16.162Z,13.5
2018-11-11T03:27:42.277Z,13.53
2018-11-11T03:28:08.406Z,13.59
2018-11-11T03:28:34.557Z,13.47
2018-11-11T03:29:00.712Z,13.54
2018-11-11T03:29:26.858Z,13.47
2018-11-11T03:29:52.996Z,13.49
2018-11-11T03:30:19.187Z,13.5
2018-11-11T03:30:45.307Z,13.42
2018-11-11T03:31:11.468Z,13.42
2018-11-11T03:31:37.645Z,13.53
2018-11-11T03:32:03.812Z,13.49
2018-11-11T03:32:29.971Z,13.54
2018-11-11T03:32:56.101Z,13.47
2018-11-11T03:33:22.257Z,13.53
2018-11-11T03:33:48.394Z,13.53
2018-11-11T03:34:14.529Z,13.44
2018-11-11T03:34:40.677Z,13.41
2018-11-11T03:35:06.815Z,13.47
2018-11-11T03:35:32.974Z,13.49
2018-11-11T03:35:59.123Z,13.5
2018-11-11T03:36:25.253Z,13.41
2018-11-11T03:36:51.428Z,13.49
2018-11-11T03:37:17.591Z,13.49
2018-11-11T03:37:43.774Z,13.46
2018-11-11T03:38:09.953Z,13.59
2018-11-11T03:38:36.084Z,13.57
2018-11-11T03:39:02.244Z,13.52
2018-11-11T03:39:28.370Z,13.52
2018-11-11T03:39:54.507Z,13.53
2018-11-11T03:40:20.661Z,13.47
2018-11-11T03:40:46.817Z,13.5
2018-11-11T03:41:12.973Z,13.53
2018-11-11T03:41:39.133Z,13.53
2018-11-11T03:42:05.270Z,13.37
2018-11-11T03:42:31.423Z,13.46
2018-11-11T03:42:57.581Z,13.38
2018-11-11T03:43:23.740Z,13.44
2018-11-11T03:43:49.894Z,13.52
2018-11-11T03:44:16.052Z,13.49
2018-11-11T03:44:42.221Z,13.44
2018-11-11T03:45:08.352Z,13.52
2018-11-11T03:45:34.489Z,13.46
2018-11-11T03:46:00.615Z,13.47
2018-11-11T03:46:26.767Z,13.52
2018-11-11T03:46:52.929Z,13.56
2018-11-11T03:47:19.064Z,13.59
2018-11-11T03:47:45.243Z,13.62
2018-11-11T03:48:11.376Z,13.6
2018-11-11T03:48:37.506Z,13.59
2018-11-11T03:49:03.671Z,13.62
2018-11-11T03:49:29.805Z,13.67
2018-11-11T03:49:55.937Z,13.65
2018-11-11T03:50:22.095Z,13.72
2018-11-11T03:50:48.250Z,13.7
2018-11-11T03:51:14.384Z,13.67
2018-11-11T03:51:40.552Z,13.7
2018-11-11T03:52:06.731Z,13.72
2018-11-11T03:52:32.886Z,13.67
2018-11-11T03:52:59.052Z,13.62
2018-11-11T03:53:25.193Z,13.68
2018-11-11T03:53:51.364Z,13.62
2018-11-11T03:54:17.499Z,13.63
2018-11-11T03:54:43.628Z,13.57
2018-11-11T03:55:09.786Z,13.65
2018-11-11T03:55:35.935Z,13.67
2018-11-11T03:56:02.089Z,13.71
2018-11-11T03:56:28.246Z,13.57
2018-11-11T03:56:54.387Z,13.71
2018-11-11T03:57:20.539Z,13.72
2018-11-11T03:57:46.731Z,13.62
2018-11-11T03:58:12.886Z,13.71
2018-11-11T03:58:39.037Z,13.75
2018-11-11T03:59:05.173Z,13.72
2018-11-11T03:59:31.341Z,13.7
2018-11-11T03:59:57.535Z,13.71
2018-11-11T04:00:23.724Z,13.67
2018-11-11T04:00:49.936Z,13.71
2018-11-11T04:01:16.093Z,13.62
2018-11-11T04:01:42.256Z,13.62
2018-11-11T04:02:08.381Z,13.63
2018-11-11T04:02:34.520Z,13.7
2018-11-11T04:03:00.647Z,13.7
2018-11-11T04:03:26.816Z,13.7
2018-11-11T04:03:52.962Z,13.6
2018-11-11T04:04:19.144Z,13.71
2018-11-11T04:04:45.318Z,13.67
2018-11-11T04:05:11.490Z,13.65
2018-11-11T04:05:37.651Z,13.68
2018-11-11T04:06:03.835Z,13.62
2018-11-11T04:06:29.959Z,13.7
2018-11-11T04:06:56.124Z,13.62
2018-11-11T04:07:22.368Z,13.71
2018-11-11T04:07:48.552Z,13.7
2018-11-11T04:08:14.706Z,13.77
2018-11-11T04:08:40.832Z,13.78
2018-11-11T04:09:06.962Z,13.77
2018-11-11T04:09:33.179Z,13.74
2018-11-11T04:09:59.403Z,13.72
2018-11-11T04:10:25.724Z,13.71
2018-11-11T04:10:51.927Z,13.79
2018-11-11T04:11:18.210Z,13.68
2018-11-11T04:11:44.429Z,13.6
2018-11-11T04:12:10.689Z,13.71
2018-11-11T04:12:36.993Z,13.75
2018-11-11T04:13:03.134Z,13.79
2018-11-11T04:13:29.381Z,13.77
2018-11-11T04:13:55.513Z,13.77
2018-11-11T04:14:21.643Z,13.77
2018-11-11T04:14:47.830Z,13.77
2018-11-11T04:15:14.001Z,13.75
2018-11-11T04:15:40.152Z,13.72
2018-11-11T04:16:06.286Z,13.68
2018-11-11T04:16:32.423Z,13.6
2018-11-11T04:16:58.556Z,13.6
2018-11-11T04:17:24.716Z,13.62
2018-11-11T04:17:50.871Z,13.7
2018-11-11T04:18:17.051Z,13.7
2018-11-11T04:18:43.182Z,13.72
2018-11-11T04:19:09.314Z,13.77
2018-11-11T04:19:35.456Z,13.85
2018-11-11T04:20:01.588Z,13.77
2018-11-11T04:20:27.785Z,13.77
2018-11-11T04:20:53.956Z,13.74
2018-11-11T04:21:20.111Z,13.77
2018-11-11T04:21:46.260Z,13.77
2018-11-11T04:22:12.394Z,13.75
2018-11-11T04:22:38.548Z,13.7
2018-11-11T04:23:04.662Z,13.74
2018-11-11T04:23:30.842Z,13.74
2018-11-11T04:23:57.018Z,13.75
2018-11-11T04:24:23.141Z,13.77
2018-11-11T04:24:49.296Z,13.75
2018-11-11T04:25:15.470Z,13.71
2018-11-11T04:25:41.659Z,13.78
2018-11-11T04:26:07.813Z,13.74
2018-11-11T04:26:33.977Z,13.75
2018-11-11T04:27:00.179Z,13.77
2018-11-11T04:27:26.365Z,13.72
2018-11-11T04:27:52.521Z,13.77
2018-11-11T04:28:18.714Z,13.74
2018-11-11T04:28:44.846Z,13.86
2018-11-11T04:29:10.985Z,13.65
2018-11-11T04:29:37.120Z,13.72
2018-11-11T04:30:03.304Z,13.6
2018-11-11T04:30:29.533Z,13.71
2018-11-11T04:30:55.722Z,13.68
2018-11-11T04:31:21.906Z,13.63
2018-11-11T04:31:48.058Z,13.65
2018-11-11T04:32:14.192Z,13.72
2018-11-11T04:32:40.326Z,13.71
2018-11-11T04:33:06.501Z,13.67
2018-11-11T04:33:32.696Z,13.59
2018-11-11T04:33:58.845Z,13.65
2018-11-11T04:34:24.979Z,13.71
2018-11-11T04:34:51.137Z,13.6
2018-11-11T04:35:17.270Z,13.7
2018-11-11T04:35:43.432Z,13.71
2018-11-11T04:36:09.565Z,13.6
2018-11-11T04:36:35.697Z,13.72
2018-11-11T04:37:01.878Z,13.68
2018-11-11T04:37:28.014Z,13.68
2018-11-11T04:37:54.159Z,13.6
2018-11-11T04:38:20.307Z,13.74
2018-11-11T04:38:46.454Z,13.68
2018-11-11T04:39:12.696Z,13.62
2018-11-11T04:39:38.828Z,13.67
2018-11-11T04:40:04.992Z,13.67
2018-11-11T04:40:31.143Z,13.68
2018-11-11T04:40:57.299Z,13.72
2018-11-11T04:41:23.451Z,13.77
2018-11-11T04:41:49.605Z,13.72
2018-11-11T04:42:15.767Z,13.7
2018-11-11T04:42:41.920Z,13.67
2018-11-11T04:43:08.054Z,13.62
2018-11-11T04:43:34.212Z,13.65
2018-11-11T04:44:00.372Z,13.75
2018-11-11T04:44:26.506Z,13.71
2018-11-11T04:44:52.641Z,13.63
2018-11-11T04:45:18.822Z,13.71
2018-11-11T04:45:44.978Z,13.6
2018-11-11T04:46:11.171Z,13.67
2018-11-11T04:46:37.358Z,13.68
2018-11-11T04:47:03.400Z,13.74
2018-11-11T04:47:29.543Z,13.74
2018-11-11T04:47:55.670Z,13.78
2018-11-11T04:48:21.848Z,13.79
2018-11-11T04:48:48.004Z,13.77
2018-11-11T04:49:14.154Z,13.79
2018-11-11T04:49:40.304Z,13.74
2018-11-11T04:50:06.439Z,13.75
2018-11-11T04:50:32.592Z,13.77
2018-11-11T04:50:58.797Z,13.71
2018-11-11T04:51:24.932Z,13.72
2018-11-11T04:51:51.096Z,13.78
2018-11-11T04:52:17.250Z,13.72
2018-11-11T04:52:43.405Z,13.74
2018-11-11T04:53:09.542Z,13.7
2018-11-11T04:53:35.704Z,13.77
2018-11-11T04:54:01.841Z,13.6
2018-11-11T04:54:27.994Z,13.68
2018-11-11T04:54:54.146Z,13.67
2018-11-11T04:55:20.284Z,13.72
2018-11-11T04:55:46.414Z,13.7
2018-11-11T04:56:12.577Z,13.72
2018-11-11T04:56:38.716Z,13.6
2018-11-11T04:57:04.868Z,13.62
2018-11-11T04:57:31.028Z,13.62
2018-11-11T04:57:57.217Z,13.57
2018-11-11T04:58:23.354Z,13.5
2018-11-11T04:58:49.485Z,13.46
2018-11-11T04:59:15.612Z,13.56
2018-11-11T04:59:41.771Z,13.65
2018-11-11T05:00:07.924Z,13.6
2018-11-11T05:00:34.088Z,13.57
2018-11-11T05:01:00.239Z,13.49
2018-11-11T05:01:26.524Z,13.62
2018-11-11T05:01:52.601Z,13.5
2018-11-11T05:02:18.780Z,13.62
2018-11-11T05:02:44.917Z,13.59
2018-11-11T05:03:11.055Z,13.56
2018-11-11T05:03:37.209Z,13.56
2018-11-11T05:04:03.335Z,13.67
2018-11-11T05:04:29.521Z,13.68
2018-11-11T05:04:55.665Z,13.67
2018-11-11T05:05:21.793Z,13.71
2018-11-11T05:05:47.927Z,13.63
2018-11-11T05:06:14.091Z,13.72
2018-11-11T05:06:40.266Z,13.71
2018-11-11T05:07:06.406Z,13.72
2018-11-11T05:07:32.533Z,13.71
2018-11-11T05:07:58.661Z,13.77
2018-11-11T05:08:24.794Z,13.63
2018-11-11T05:08:50.934Z,13.71
2018-11-11T05:09:17.090Z,13.83
2018-11-11T05:09:43.269Z,13.7
2018-11-11T05:10:09.400Z,13.72
2018-11-11T05:10:35.533Z,13.71
2018-11-11T05:11:01.716Z,13.74
2018-11-11T05:11:27.852Z,13.75
2018-11-11T05:11:53.980Z,13.7
2018-11-11T05:12:20.137Z,13.7
2018-11-11T05:12:46.271Z,13.71
2018-11-11T05:13:12.417Z,13.67
2018-11-11T05:13:38.550Z,13.63
2018-11-11T05:14:04.681Z,13.74
2018-11-11T05:14:30.812Z,13.68
2018-11-11T05:14:56.948Z,13.71
2018-11-11T05:15:23.100Z,13.71
2018-11-11T05:15:49.255Z,13.68
2018-11-11T05:16:15.402Z,13.74
2018-11-11T05:16:41.568Z,13.59
2018-11-11T05:17:07.704Z,13.65
2018-11-11T05:17:33.836Z,13.72
2018-11-11T05:17:59.969Z,13.6
2018-11-11T05:18:26.102Z,13.77
2018-11-11T05:18:52.250Z,13.71
2018-11-11T05:19:18.409Z,13.63
2018-11-11T05:19:44.567Z,13.75
2018-11-11T05:20:10.745Z,13.74
2018-11-11T05:20:36.926Z,13.74
2018-11-11T05:21:03.053Z,13.72
2018-11-11T05:21:29.186Z,13.75
2018-11-11T05:21:55.439Z,13.79
2018-11-11T05:22:21.515Z,13.87
2018-11-11T05:22:47.656Z,13.85
2018-11-11T05:23:13.781Z,13.83
2018-11-11T05:23:39.935Z,13.83
2018-11-11T05:24:06.079Z,13.75
2018-11-11T05:24:32.210Z,13.72
2018-11-11T05:24:58.344Z,13.72
2018-11-11T05:25:24.477Z,13.7
2018-11-11T05:25:50.610Z,13.67
2018-11-11T05:26:16.741Z,13.74
2018-11-11T05:26:42.871Z,13.79
2018-11-11T05:27:09.031Z,13.75
2018-11-11T05:27:35.185Z,13.72
2018-11-11T05:28:01.333Z,13.79
2018-11-11T05:28:27.486Z,13.83
2018-11-11T05:28:53.624Z,13.83
2018-11-11T05:29:19.777Z,13.86
2018-11-11T05:29:45.931Z,13.83
2018-11-11T05:30:12.067Z,13.85
2018-11-11T05:30:38.194Z,13.87
2018-11-11T05:31:04.321Z,13.74
2018-11-11T05:31:30.455Z,13.72
2018-11-11T05:31:56.640Z,13.74
2018-11-11T05:32:22.774Z,13.74
2018-11-11T05:32:48.905Z,13.79
2018-11-11T05:33:15.062Z,13.78
2018-11-11T05:33:41.200Z,13.9
2018-11-11T05:34:07.336Z,13.85
2018-11-11T05:34:33.491Z,13.78
2018-11-11T05:34:59.627Z,13.87
2018-11-11T05:35:25.779Z,13.79
2018-11-11T05:35:51.909Z,13.83
2018-11-11T05:36:18.044Z,13.75
2018-11-11T05:36:44.177Z,13.78
2018-11-11T05:37:10.310Z,13.79
2018-11-11T05:37:36.492Z,13.83
2018-11-11T05:38:02.622Z,13.83
2018-11-11T05:38:28.753Z,13.81